Time;durP1;ratioP1;P1;durP2;ratioP2;P2;SDS_P1;SDS_P2;PMS_P1;PMS_P2;Temp;Humidity;BMP_temperature;BMP_pressure;BME280_temperature;BME280_humidity;BME280_pressure;Samples;Min_cycle;Max_cycle;Signal;HPM_P1;HPM_P2
2022/01/03 00:00:14;;;;;;;14.57;3.20;;;8.60;99.90;;;;;;4908787;29;20903;-81
2022/01/03 00:02:41;;;;;;;16.33;3.80;;;8.50;99.90;;;;;;4888205;29;20435;-80
2022/01/03 00:05:08;;;;;;;16.23;3.60;;;;;;;;;;4878532;29;20803;-81
2022/01/03 00:07:38;;;;;;;14.32;3.53;;;;;;;;;;4888075;29;20511;-82
2022/01/03 00:10:05;;;;;;;16.15;3.00;;;;;;;;;;4891977;29;20892;-81
2022/01/03 00:12:32;;;;;;;19.73;3.63;;;;;;;;;;4893420;29;20466;-80
2022/01/03 00:14:59;;;;;;;17.58;3.75;;;;;;;;;;4880167;29;20435;-80
2022/01/03 00:17:25;;;;;;;14.95;3.40;;;;;;;;;;4888774;29;20458;-80
2022/01/03 00:19:51;;;;;;;14.73;3.42;;;;;;;;;;4880926;29;20935;-80
2022/01/03 00:22:24;;;;;;;15.23;3.00;;;9.10;99.90;;;;;;4892086;29;20452;-80
2022/01/03 00:24:57;;;;;;;20.15;3.63;;;;;;;;;;4892955;29;20941;-80
2022/01/03 00:27:45;;;;;;;15.75;3.67;;;8.80;99.90;;;;;;4895981;29;20434;-79
2022/01/03 00:30:12;;;;;;;15.10;3.07;;;;;;;;;;4891749;29;20840;-80
2022/01/03 00:32:38;;;;;;;24.17;3.60;;;;;;;;;;4897731;29;20428;-80
2022/01/03 00:35:05;;;;;;;19.13;3.70;;;;;;;;;;4890128;29;20923;-80
2022/01/03 00:37:32;;;;;;;18.63;3.50;;;;;;;;;;4887836;29;20441;-80
2022/01/03 00:39:59;;;;;;;16.98;3.75;;;;;;;;;;4886826;29;20435;-80
2022/01/03 00:42:25;;;;;;;23.85;3.75;;;;;;;;;;4887148;29;20470;-80
2022/01/03 00:44:53;;;;;;;17.98;3.80;;;8.60;99.90;;;;;;4881645;29;20482;-81
2022/01/03 00:47:19;;;;;;;23.35;5.30;;;;;;;;;;4877889;29;20464;-80
2022/01/03 00:49:45;;;;;;;19.35;3.83;;;;;;;;;;4889206;29;20433;-80
2022/01/03 00:52:12;;;;;;;20.02;3.90;;;8.50;99.90;;;;;;4879602;29;20462;-80
2022/01/03 00:54:38;;;;;;;16.73;3.70;;;;;;;;;;4875718;29;20437;-80
2022/01/03 00:57:07;;;;;;;19.27;4.00;;;;;;;;;;4893298;29;20477;-80
2022/01/03 00:59:44;;;;;;;18.25;4.10;;;;;;;;;;4891129;29;20953;-80
2022/01/03 01:02:13;;;;;;;22.85;4.20;;;8.50;99.90;;;;;;4886811;29;20428;-80
2022/01/03 01:04:44;;;;;;;21.40;4.28;;;8.20;99.90;;;;;;4900859;29;20425;-80
2022/01/03 01:07:11;;;;;;;17.63;3.88;;;8.60;99.90;;;;;;4901296;29;20440;-80
2022/01/03 01:09:38;;;;;;;20.20;4.37;;;;;;;;;;4872108;29;20426;-80
2022/01/03 01:12:06;;;;;;;21.13;4.13;;;;;;;;;;4894162;29;20433;-80
2022/01/03 01:14:32;;;;;;;21.75;4.35;;;;;;;;;;4882101;29;20434;-74
2022/01/03 01:16:58;;;;;;;22.60;4.13;;;;;;;;;;4889649;29;20519;-75
2022/01/03 01:19:27;;;;;;;26.27;4.53;;;8.50;99.90;;;;;;4887064;29;20420;-75
2022/01/03 01:21:53;;;;;;;22.25;4.15;;;;;;;;;;4892027;29;20423;-75
2022/01/03 01:24:22;;;;;;;19.08;4.22;;;;;;;;;;4883890;29;20512;-75
2022/01/03 01:29:36;;;;;;;23.10;4.30;;;;;;;;;;4891317;29;20455;-75
2022/01/03 01:32:03;;;;;;;25.45;4.53;;;;;;;;;;4912188;29;20423;-75
2022/01/03 01:34:32;;;;;;;28.05;4.65;;;;;;;;;;4908781;29;20459;-76
2022/01/03 01:36:59;;;;;;;23.23;4.22;;;;;;;;;;4885707;29;20430;-76
2022/01/03 01:39:28;;;;;;;28.37;5.00;;;8.70;99.90;;;;;;4892493;29;20435;-75
2022/01/03 01:41:55;;;;;;;25.40;4.70;;;;;;;;;;4894079;29;20432;-75
2022/01/03 01:44:22;;;;;;;23.20;4.75;;;;;;;;;;4895750;29;20442;-75
2022/01/03 01:46:53;;;;;;;25.25;4.30;;;;;;;;;;4893511;29;20445;-76
2022/01/03 01:49:21;;;;;;;19.95;4.47;;;8.70;99.90;;;;;;4897610;29;20445;-75
2022/01/03 01:51:55;;;;;;;22.63;4.22;;;8.90;99.90;;;;;;4882688;29;20425;-75
2022/01/03 01:54:36;;;;;;;29.23;5.22;;;8.70;99.90;;;;;;4904679;29;20806;-75
2022/01/03 01:57:09;;;;;;;25.55;4.60;;;;;;;;;;4905037;29;20493;-76
2022/01/03 01:59:40;;;;;;;19.98;4.03;;;;;;;;;;4892303;29;20462;-75
2022/01/03 02:02:09;;;;;;;23.05;4.30;;;8.80;99.90;;;;;;4898797;29;20441;-75
2022/01/03 02:04:38;;;;;;;27.45;5.05;;;;;;;;;;4887313;29;20442;-76
2022/01/03 02:07:25;;;;;;;25.45;4.53;;;;;;;;;;4896171;29;20429;-76
2022/01/03 02:10:03;;;;;;;23.10;4.55;;;;;;;;;;4891961;29;20965;-75
2022/01/03 02:12:30;;;;;;;28.15;4.55;;;;;;;;;;4887353;29;20517;-76
2022/01/03 02:14:58;;;;;;;23.65;4.65;;;;;;;;;;4888186;29;20433;-76
2022/01/03 02:17:24;;;;;;;19.27;4.40;;;;;;;;;;4887501;29;20938;-76
2022/01/03 02:20:20;;;;;;;27.65;5.13;;;8.50;99.90;;;;;;4893178;29;20463;-76
2022/01/03 02:22:46;;;;;;;25.05;4.90;;;;;;;;;;4891968;29;20435;-76
2022/01/03 02:25:14;;;;;;;27.27;4.90;;;8.60;99.90;;;;;;4892176;29;20563;-76
2022/01/03 02:27:41;;;;;;;27.75;4.97;;;;;;;;;;4889963;29;20435;-76
2022/01/03 02:30:09;;;;;;;26.67;5.00;;;;;;;;;;4884146;29;20503;-76
2022/01/03 02:32:35;;;;;;;23.75;4.47;;;;;;;;;;4890876;29;20437;-76
2022/01/03 02:35:01;;;;;;;23.08;4.22;;;;;;;;;;4896905;29;20505;-76
2022/01/03 02:37:27;;;;;;;25.60;4.70;;;;;;;;;;4881314;29;20430;-76
2022/01/03 02:39:54;;;;;;;24.15;4.55;;;;;;;;;;4889870;29;20436;-79
2022/01/03 02:42:25;;;;;;;20.88;4.50;;;;;;;;;;4897897;29;20479;-79
2022/01/03 02:45:00;;;;;;;26.55;5.10;;;;;;;;;;4889332;29;20442;-79
2022/01/03 02:47:26;;;;;;;22.55;4.47;;;;;;;;;;4881086;29;20450;-80
2022/01/03 02:49:53;;;;;;;25.73;5.47;;;;;;;;;;4885453;29;20490;-76
2022/01/03 02:52:19;;;;;;;28.40;4.78;;;;;;;;;;4891502;29;20429;-76
2022/01/03 02:54:45;;;;;;;25.52;4.70;;;;;;;;;;4889359;29;20496;-80
2022/01/03 02:57:11;;;;;;;29.20;5.72;;;;;;;;;;4884440;29;20427;-76
2022/01/03 02:59:37;;;;;;;23.80;5.17;;;;;;;;;;4888586;29;20523;-76
2022/01/03 03:02:05;;;;;;;25.98;5.15;;;;;;;;;;4880068;29;20435;-76
2022/01/03 03:04:31;;;;;;;22.52;5.00;;;;;;;;;;4885134;29;20466;-76
2022/01/03 03:06:57;;;;;;;23.92;5.38;;;;;;;;;;4886558;29;20485;-76
2022/01/03 03:09:23;;;;;;;24.83;4.50;;;;;;;;;;4888806;29;20781;-76
2022/01/03 03:11:49;;;;;;;32.92;5.55;;;;;;;;;;4891229;29;20516;-75
2022/01/03 03:14:16;;;;;;;23.83;4.82;;;;;;;;;;4881594;29;20567;-76
2022/01/03 03:16:42;;;;;;;24.07;4.70;;;;;;;;;;4892923;29;20452;-76
2022/01/03 03:19:09;;;;;;;28.52;5.20;;;8.40;99.90;;;;;;4886479;29;20462;-75
2022/01/03 03:21:35;;;;;;;24.30;5.07;;;;;;;;;;4879486;29;20447;-75
2022/01/03 03:24:01;;;;;;;23.25;5.47;;;;;;;;;;4885410;29;20453;-76
2022/01/03 03:26:27;;;;;;;24.05;4.82;;;;;;;;;;4886944;29;20422;-75
2022/01/03 03:28:54;;;;;;;23.77;5.15;;;;;;;;;;4868572;29;20439;-76
2022/01/03 03:31:20;;;;;;;24.08;4.80;;;;;;;;;;4887890;29;20433;-75
2022/01/03 03:33:46;;;;;;;27.02;5.00;;;;;;;;;;4874099;29;20465;-76
2022/01/03 03:36:12;;;;;;;29.80;5.85;;;;;;;;;;4895912;29;20437;-76
2022/01/03 03:38:38;;;;;;;29.50;5.60;;;;;;;;;;4897456;29;20424;-75
2022/01/03 03:41:05;;;;;;;28.17;5.47;;;;;;;;;;4894631;29;20512;-75
2022/01/03 03:43:31;;;;;;;23.48;4.93;;;;;;;;;;4866181;29;20449;-76
2022/01/03 03:45:57;;;;;;;31.90;6.18;;;;;;;;;;4908051;29;20529;-75
2022/01/03 03:48:23;;;;;;;28.35;5.35;;;;;;;;;;4862393;29;20443;-76
2022/01/03 03:50:50;;;;;;;29.83;4.70;;;;;;;;;;4910626;29;20910;-76
2022/01/03 03:53:16;;;;;;;27.63;5.60;;;;;;;;;;4893113;29;20518;-75
2022/01/03 03:55:44;;;;;;;28.50;5.43;;;;;;;;;;4880240;29;20441;-76
2022/01/03 03:58:13;;;;;;;26.50;5.72;;;;;;;;;;4886157;29;20527;-75
2022/01/03 04:00:39;;;;;;;26.03;5.63;;;;;;;;;;4898513;29;20474;-75
2022/01/03 04:03:05;;;;;;;30.50;5.57;;;;;;;;;;4879991;29;20534;-76
2022/01/03 04:05:31;;;;;;;27.52;5.35;;;;;;;;;;4891506;29;20432;-76
2022/01/03 04:07:57;;;;;;;25.65;5.43;;;;;;;;;;4893570;29;20509;-76
2022/01/03 04:10:23;;;;;;;26.25;5.30;;;;;;;;;;4885839;29;20429;-76
2022/01/03 04:12:49;;;;;;;27.35;5.47;;;;;;;;;;4889872;29;20924;-76
2022/01/03 04:15:15;;;;;;;27.92;5.72;;;;;;;;;;4911558;29;20982;-76
2022/01/03 04:17:41;;;;;;;27.08;5.38;;;;;;;;;;4884142;29;20520;-76
2022/01/03 04:20:08;;;;;;;26.63;5.57;;;;;;;;;;4889506;29;21047;-76
2022/01/03 04:22:36;;;;;;;31.05;5.32;;;;;;;;;;4884908;29;20859;-76
2022/01/03 04:25:02;;;;;;;30.85;5.80;;;;;;;;;;4895906;29;20435;-76
2022/01/03 04:27:28;;;;;;;27.27;5.55;;;;;;;;;;4887061;29;20439;-76
2022/01/03 04:29:54;;;;;;;27.38;5.38;;;;;;;;;;4900698;29;20795;-77
2022/01/03 04:32:20;;;;;;;24.67;4.93;;;;;;;;;;4887724;29;20444;-77
2022/01/03 04:34:46;;;;;;;25.55;5.20;;;;;;;;;;4882074;29;20494;-77
2022/01/03 04:37:14;;;;;;;35.65;5.93;;;;;;;;;;4897311;29;20489;-77
2022/01/03 04:39:41;;;;;;;28.98;5.93;;;;;;;;;;4888184;29;20441;-76
2022/01/03 04:42:07;;;;;;;29.48;5.63;;;;;;;;;;4885951;29;20441;-76
2022/01/03 04:44:33;;;;;;;33.25;5.70;;;;;;;;;;4887425;29;20913;-76
2022/01/03 04:46:59;;;;;;;26.90;5.45;;;;;;;;;;4885855;29;20443;-77
2022/01/03 04:49:25;;;;;;;30.70;5.85;;;;;;;;;;4879115;29;20456;-77
2022/01/03 04:51:51;;;;;;;30.70;6.13;;;;;;;;;;4894930;29;20956;-77
2022/01/03 04:54:18;;;;;;;27.53;6.03;;;;;;;;;;4877902;29;21023;-77
2022/01/03 04:56:44;;;;;;;36.22;6.85;;;;;;;;;;4890053;29;21019;-76
2022/01/03 04:59:10;;;;;;;28.17;5.50;;;;;;;;;;4880076;29;20484;-76
2022/01/03 05:01:36;;;;;;;29.77;7.00;;;;;;;;;;4902618;29;20469;-77
2022/01/03 05:04:02;;;;;;;33.50;6.18;;;;;;;;;;4886942;29;20443;-77
2022/01/03 05:06:29;;;;;;;31.88;6.28;;;;;;;;;;4880561;29;21062;-77
2022/01/03 05:08:55;;;;;;;32.80;6.28;;;;;;;;;;4880003;29;22297;-77
2022/01/03 05:11:21;;;;;;;28.48;5.82;;;;;;;;;;4862771;29;20431;-76
2022/01/03 05:13:47;;;;;;;30.97;6.13;;;;;;;;;;4884427;29;20442;-77
2022/01/03 05:16:14;;;;;;;30.98;6.28;;;;;;;;;;4885571;29;20514;-76
2022/01/03 05:18:40;;;;;;;31.58;6.50;;;;;;;;;;4898103;29;20462;-76
2022/01/03 05:21:06;;;;;;;34.63;6.40;;;;;;;;;;4882476;29;20435;-77
2022/01/03 05:23:32;;;;;;;38.60;7.15;;;;;;;;;;4903300;29;20517;-77
2022/01/03 05:25:58;;;;;;;35.05;5.90;;;;;;;;;;4883914;29;20442;-77
2022/01/03 05:28:24;;;;;;;38.08;5.97;;;;;;;;;;4879356;29;20430;-76
2022/01/03 05:30:52;;;;;;;34.03;6.27;;;;;;;;;;4880462;29;20901;-76
2022/01/03 05:33:18;;;;;;;34.53;6.22;;;;;;;;;;4898570;29;20439;-77
2022/01/03 05:35:44;;;;;;;37.03;6.88;;;;;;;;;;4877507;29;20487;-76
2022/01/03 05:38:10;;;;;;;33.50;5.88;;;;;;;;;;4889330;29;20462;-76
2022/01/03 05:40:36;;;;;;;36.53;7.05;;;;;;;;;;4909785;29;20441;-77
2022/01/03 05:43:02;;;;;;;34.97;6.22;;;;;;;;;;4889494;29;20470;-78
2022/01/03 05:45:28;;;;;;;31.35;6.25;;;;;;;;;;4881721;29;20431;-79
2022/01/03 05:47:55;;;;;;;36.45;6.60;;;;;;;;;;4908645;29;20434;-79
2022/01/03 05:50:21;;;;;;;35.28;7.47;;;;;;;;;;4884124;29;20423;-79
2022/01/03 05:52:47;;;;;;;34.47;6.73;;;;;;;;;;4878816;29;20458;-79
2022/01/03 05:55:13;;;;;;;38.70;6.72;;;;;;;;;;4878530;29;20446;-80
2022/01/03 05:57:40;;;;;;;32.78;6.82;;;;;;;;;;4890544;29;20433;-81
2022/01/03 06:00:07;;;;;;;33.75;6.53;;;;;;;;;;4885695;29;20477;-81
2022/01/03 06:02:38;;;;;;;41.00;7.43;;;;;;;;;;4893656;29;20450;-81
2022/01/03 06:05:06;;;;;;;34.90;6.32;;;;;;;;;;4883401;29;20437;-80
2022/01/03 06:07:33;;;;;;;33.07;6.57;;;;;;;;;;4891689;29;20783;-81
2022/01/03 06:09:59;;;;;;;35.92;7.05;;;;;;;;;;4881869;29;20506;-81
2022/01/03 06:12:25;;;;;;;34.97;6.97;;;;;;;;;;4894463;29;20516;-81
2022/01/03 06:14:51;;;;;;;36.78;6.05;;;;;;;;;;4890028;29;20430;-77
2022/01/03 06:17:17;;;;;;;37.70;6.53;;;;;;;;;;4894010;29;20442;-77
2022/01/03 06:19:44;;;;;;;37.03;6.15;;;;;;;;;;4886327;29;20491;-77
2022/01/03 06:22:11;;;;;;;41.20;7.50;;;;;;;;;;4873613;29;20433;-76
2022/01/03 06:24:39;;;;;;;32.08;6.18;;;;;;;;;;4876191;29;20802;-77
2022/01/03 06:27:06;;;;;;;35.97;7.30;;;;;;;;;;4895400;29;20514;-77
2022/01/03 06:29:32;;;;;;;38.85;7.28;;;;;;;;;;4888124;29;20427;-81
2022/01/03 06:31:58;;;;;;;34.67;6.45;;;;;;;;;;4886892;29;20764;-81
2022/01/03 06:34:24;;;;;;;34.20;6.93;;;;;;;;;;4875630;29;20433;-81
2022/01/03 06:36:50;;;;;;;42.42;7.18;;;;;;;;;;4883246;29;20573;-81
2022/01/03 06:39:17;;;;;;;39.70;7.05;;;;;;;;;;4892489;29;20765;-81
2022/01/03 06:41:44;;;;;;;35.83;6.78;;;;;;;;;;4898967;29;20433;-76
2022/01/03 06:44:10;;;;;;;34.55;6.70;;;;;;;;;;4875731;29;22187;-77
2022/01/03 06:46:36;;;;;;;41.58;7.28;;;;;;;;;;4867411;29;20439;-77
2022/01/03 06:49:06;;;;;;;39.50;6.43;;;;;;;;;;4889015;29;20459;-77
2022/01/03 06:51:34;;;;;;;43.65;7.07;;;;;;;;;;4891421;29;20788;-77
2022/01/03 06:54:05;;;;;;;31.85;6.53;;;;;;;;;;4882192;29;20439;-78
2022/01/03 06:56:31;;;;;;;36.60;6.68;;;;;;;;;;4894507;29;20971;-77
2022/01/03 06:58:57;;;;;;;31.90;6.37;;;;;;;;;;4915972;29;20850;-77
2022/01/03 07:01:23;;;;;;;42.03;6.57;;;;;;;;;;4894265;29;20427;-77
2022/01/03 07:03:49;;;;;;;31.98;6.47;;;;;;;;;;4893419;29;20797;-78
2022/01/03 07:06:16;;;;;;;36.53;6.75;;;;;;;;;;4895848;29;20850;-78
2022/01/03 07:08:42;;;;;;;41.28;7.20;;;;;;;;;;4882392;29;20425;-78
2022/01/03 07:11:08;;;;;;;39.53;7.28;;;;;;;;;;4882704;29;20525;-78
2022/01/03 07:13:43;;;;;;;39.67;6.68;;;;;;;;;;4882217;29;20443;-78
2022/01/03 07:18:56;;;;;;;39.63;7.13;;;;;;;;;;4914799;29;20421;-78
2022/01/03 07:21:24;;;;;;;41.20;7.70;;;;;;;;;;4881372;29;20847;-77
2022/01/03 07:23:50;;;;;;;33.23;6.10;;;;;;;;;;4880683;29;20463;-77
2022/01/03 07:26:16;;;;;;;41.97;6.95;;;;;;;;;;4900862;29;21439;-82
2022/01/03 07:28:42;;;;;;;38.07;7.53;;;;;;;;;;4901747;29;20450;-77
2022/01/03 07:31:09;;;;;;;36.30;6.75;;;;;;;;;;4891956;29;20439;-77
2022/01/03 07:33:35;;;;;;;41.97;7.78;;;;;;;;;;4885369;29;20440;-78
2022/01/03 07:36:01;;;;;;;39.03;7.38;;;;;;;;;;4893326;29;20972;-77
2022/01/03 07:38:27;;;;;;;41.78;6.90;;;;;;;;;;4883001;29;20434;-76
2022/01/03 07:40:53;;;;;;;38.58;7.03;;;;;;;;;;4873912;29;21139;-78
2022/01/03 07:43:19;;;;;;;41.55;6.90;;;;;;;;;;4880588;29;20540;-78
2022/01/03 07:45:46;;;;;;;38.03;7.90;;;;;;;;;;4893813;29;20588;-78
2022/01/03 07:48:12;;;;;;;39.95;7.38;;;;;;;;;;4898051;29;20937;-78
2022/01/03 07:50:38;;;;;;;39.95;7.60;;;;;;;;;;4879756;29;20442;-77
2022/01/03 07:53:04;;;;;;;37.70;7.22;;;;;;;;;;4882849;29;20462;-77
2022/01/03 07:55:30;;;;;;;37.60;6.65;;;;;;;;;;4886057;29;20433;-77
2022/01/03 07:57:57;;;;;;;34.58;6.93;;;;;;;;;;4907372;29;20433;-80
2022/01/03 08:00:23;;;;;;;38.15;7.32;;;;;;;;;;4890134;29;20774;-80
2022/01/03 08:02:49;;;;;;;36.28;7.57;;;;;;;;;;4881156;29;20434;-83
2022/01/03 08:05:19;;;;;;;37.55;6.95;;;;;;;;;;4883840;29;20421;-82
2022/01/03 08:07:45;;;;;;;34.70;6.85;;;;;;;;;;4880402;29;20429;-82
2022/01/03 08:10:12;;;;;;;37.38;6.50;;;;;;;;;;4888803;29;20434;-82
2022/01/03 08:12:39;;;;;;;38.70;7.20;;;;;;;;;;4904904;29;20441;-81
2022/01/03 08:15:12;;;;;;;38.93;7.13;;;;;;;;;;4904915;29;20528;-79
2022/01/03 08:17:38;;;;;;;38.80;7.43;;;;;;;;;;4880060;29;20437;-79
2022/01/03 08:20:07;;;;;;;37.03;6.22;;;;;;;;;;4869337;29;20433;-78
2022/01/03 08:22:34;;;;;;;41.75;7.50;;;;;;;;;;4882907;29;20434;-81
2022/01/03 08:25:00;;;;;;;39.03;7.50;;;;;;;;;;4875799;29;20941;-81
2022/01/03 08:27:26;;;;;;;37.67;6.47;;;;;;;;;;4895943;29;20524;-81
2022/01/03 08:29:52;;;;;;;38.10;7.07;;;;;;;;;;4893348;29;20533;-81
2022/01/03 08:32:18;;;;;;;37.60;7.05;;;;;;;;;;4878462;29;20462;-81
2022/01/03 08:34:44;;;;;;;39.63;7.50;;;;;;;;;;4890347;29;20532;-83
2022/01/03 08:37:10;;;;;;;31.50;6.50;;;;;;;;;;4888123;29;20917;-81
2022/01/03 08:39:37;;;;;;;33.00;6.60;;;;;;;;;;4865338;29;20878;-82
2022/01/03 08:42:03;;;;;;;39.50;7.00;;;;;;;;;;4877311;29;20436;-82
2022/01/03 08:44:29;;;;;;;36.90;6.53;;;;;;;;;;4886078;29;20524;-83
2022/01/03 08:46:55;;;;;;;27.83;5.47;;;;;;;;;;4883603;29;20471;-83
2022/01/03 08:49:21;;;;;;;27.15;6.25;;;;;;;;;;4894271;29;20517;-83
2022/01/03 08:51:47;;;;;;;34.58;6.20;;;;;;;;;;4887049;29;20831;-82
2022/01/03 08:54:13;;;;;;;30.15;6.20;;;;;;;;;;4874027;29;20461;-76
2022/01/03 08:56:40;;;;;;;29.13;6.07;;;;;;;;;;4878455;29;20793;-76
2022/01/03 08:59:06;;;;;;;31.00;6.63;;;;;;;;;;4890032;29;20428;-76
2022/01/03 09:01:33;;;;;;;35.35;6.13;;;;;;;;;;4879654;29;20434;-76
2022/01/03 09:03:59;;;;;;;28.23;6.82;;;;;;;;;;4883304;29;20443;-76
2022/01/03 09:06:25;;;;;;;36.70;6.20;;;;;;;;;;4885625;29;20473;-76
2022/01/03 09:08:51;;;;;;;27.45;6.05;;;;;;;;;;4886755;29;20835;-76
2022/01/03 09:11:17;;;;;;;32.83;6.22;;;;;;;;;;4868485;29;20496;-76
2022/01/03 09:13:44;;;;;;;34.03;6.10;;;;;;;;;;4891981;29;20437;-77
2022/01/03 09:16:10;;;;;;;36.07;6.30;;;;;;;;;;4890390;29;20492;-77
2022/01/03 09:18:37;;;;;;;32.70;6.82;;;;;;;;;;4879124;29;20427;-77
2022/01/03 09:21:03;;;;;;;31.43;5.73;;;;;;;;;;4883336;29;20519;-75
2022/01/03 09:23:33;;;;;;;28.90;6.13;;;;;;;;;;4886999;29;20460;-77
2022/01/03 09:28:56;;;;;;;35.65;7.35;;;;;;;;;;4888204;29;20445;-77
2022/01/03 09:31:24;;;;;;;38.00;6.18;;;;;;;;;;4895645;29;20945;-77
2022/01/03 09:33:51;;;;;;;33.22;6.97;;;;;;;;;;4897952;29;20788;-78
2022/01/03 09:36:17;;;;;;;29.73;6.35;;;;;;;;;;4869929;29;20439;-78
2022/01/03 09:38:43;;;;;;;31.60;6.28;;;;;;;;;;4879574;29;20437;-78
2022/01/03 09:41:10;;;;;;;31.67;6.40;;;;;;;;;;4895901;29;20493;-78
2022/01/03 09:43:51;;;;;;;34.78;7.47;;;;;;;;;;4890579;29;20440;-78
2022/01/03 09:46:22;;;;;;;29.70;6.15;;;;;;;;;;4887859;29;20921;-78
2022/01/03 09:48:52;;;;;;;28.35;5.82;;;;;;;;;;4892798;29;20441;-77
2022/01/03 09:51:27;;;;;;;33.38;6.43;;;9.60;99.90;;;;;;4889117;29;20428;-79
2022/01/03 09:53:54;;;;;;;34.20;6.82;;;;;;;;;;4885179;29;20598;-78
2022/01/03 09:56:20;;;;;;;31.55;6.05;;;;;;;;;;4886511;29;20442;-79
2022/01/03 09:58:47;;;;;;;35.15;6.45;;;;;;;;;;4887041;29;20443;-78
2022/01/03 10:01:14;;;;;;;34.00;5.80;;;;;;;;;;4893261;29;20443;-79
2022/01/03 10:03:47;;;;;;;33.33;6.28;;;;;;;;;;4893087;29;20433;-78
2022/01/03 10:06:20;;;;;;;30.80;6.22;;;;;;;;;;4879531;29;21019;-80
2022/01/03 10:08:47;;;;;;;32.97;6.30;;;;;;;;;;4889238;29;20434;-78
2022/01/03 10:11:13;;;;;;;30.80;6.67;;;;;;;;;;4886973;29;20580;-78
2022/01/03 10:13:39;;;;;;;33.33;6.15;;;;;;;;;;4883002;29;20472;-81
2022/01/03 10:16:06;;;;;;;33.25;6.15;;;;;;;;;;4875135;29;20435;-80
2022/01/03 10:18:33;;;;;;;31.80;6.13;;;;;;;;;;4886168;29;20500;-79
2022/01/03 10:20:59;;;;;;;27.75;6.40;;;;;;;;;;4884103;29;20438;-79
2022/01/03 10:23:28;;;;;;;28.33;6.13;;;;;;;;;;4880851;29;20472;-83
2022/01/03 10:26:13;;;;;;;28.83;6.13;;;;;;;;;;4887487;29;20440;-82
2022/01/03 10:28:39;;;;;;;32.92;6.07;;;;;;;;;;4889420;29;20430;-81
2022/01/03 10:31:39;;;;;;;29.73;5.68;;;;;;;;;;4880112;29;20440;-84
2022/01/03 10:34:31;;;;;;;25.80;5.43;;;;;;;;;;4888813;29;20446;-84
2022/01/03 10:37:22;;;;;;;26.42;5.78;;;;;;;;;;4865633;29;20431;-86
2022/01/03 10:40:19;;;;;;;23.17;5.30;;;;;;;;;;4944995;23;20563;-80
2022/01/03 10:42:46;;;;;;;25.88;5.70;;;;;;;;;;4907620;29;20535;-83
2022/01/03 10:45:12;;;;;;;26.90;5.60;;;;;;;;;;4904749;29;20527;-83
2022/01/03 10:47:41;;;;;;;27.50;5.80;;;;;;;;;;4906884;29;20452;-84
2022/01/03 10:50:15;;;;;;;22.45;5.22;;;;;;;;;;4903153;29;20436;-82
2022/01/03 10:52:42;;;;;;;28.90;5.43;;;;;;;;;;4907219;29;20461;-82
2022/01/03 10:55:30;;;;;;;32.08;6.15;;;;;;;;;;4890380;29;20530;-83
2022/01/03 10:58:04;;;;;;;31.85;6.00;;;;;;;;;;4898610;29;20464;-83
2022/01/03 11:00:41;;;;;;;29.80;6.00;;;;;;;;;;4881358;29;20453;-82
2022/01/03 11:03:20;;;;;;;31.77;6.22;;;;;;;;;;4908767;29;20450;-83
2022/01/03 11:05:52;;;;;;;29.88;6.25;;;;;;;;;;4896997;29;20815;-81
2022/01/03 11:11:04;;;;;;;33.10;5.75;;;;;;;;;;4911614;29;20443;-77
2022/01/03 11:13:32;;;;;;;32.20;5.70;;;;;;;;;;4915956;29;20455;-79
2022/01/03 11:16:06;;;;;;;26.00;5.80;;;;;;;;;;4916565;29;20452;-79
2022/01/03 11:18:32;;;;;;;28.40;6.32;;;;;;;;;;4901440;29;20448;-82
2022/01/03 11:21:13;;;;;;;28.33;6.00;;;;;;;;;;4905638;29;20433;-81
2022/01/03 11:23:40;;;;;;;29.20;5.88;;;;;;;;;;4908693;29;20503;-82
2022/01/03 11:26:10;;;;;;;36.17;6.75;;;;;;;;;;4905491;29;20444;-82
2022/01/03 11:28:37;;;;;;;32.10;6.13;;;;;;;;;;4916621;29;20451;-81
2022/01/03 11:31:03;;;;;;;28.73;5.80;;;;;;;;;;4897144;29;21020;-82
2022/01/03 11:33:30;;;;;;;30.58;6.13;;;;;;;;;;4925322;29;20451;-82
2022/01/03 11:35:57;;;;;;;22.65;5.00;;;;;;;;;;4902891;29;20440;-81
2022/01/03 11:38:24;;;;;;;26.77;5.80;;;;;;;;;;4890400;29;20457;-80
2022/01/03 11:40:50;;;;;;;26.08;5.65;;;;;;;;;;4928295;28;20522;-79
2022/01/03 11:43:17;;;;;;;29.45;5.22;;;;;;;;;;4897875;29;20445;-79
2022/01/03 11:45:43;;;;;;;34.03;6.25;;;;;;;;;;4897513;29;20509;-81
2022/01/03 11:48:11;;;;;;;27.77;6.03;;;10.70;99.90;;;;;;4914639;29;20437;-80
2022/01/03 11:50:38;;;;;;;25.98;5.70;;;;;;;;;;4896285;29;20432;-79
2022/01/03 11:53:08;;;;;;;25.48;5.40;;;;;;;;;;4898048;29;20445;-79
2022/01/03 11:55:35;;;;;;;24.17;5.90;;;;;;;;;;4888329;29;20939;-82
2022/01/03 12:06:00;;;;;;;23.48;5.47;;;;;;;;;;4909066;29;20452;-80
2022/01/03 12:08:31;;;;;;;25.07;5.73;;;;;;;;;;4898826;29;20486;-80
2022/01/03 12:11:00;;;;;;;27.40;5.18;;;;;;;;;;4889398;29;20435;-78
2022/01/03 12:13:45;;;;;;;25.87;5.50;;;;;;;;;;4881976;29;20470;-79
2022/01/03 12:16:12;;;;;;;26.58;5.50;;;;;;;;;;4895961;29;20425;-78
2022/01/03 12:18:39;;;;;;;22.15;4.68;;;;;;;;;;4916549;29;20433;-79
2022/01/03 12:21:05;;;;;;;27.02;5.57;;;;;;;;;;4895652;29;20425;-77
2022/01/03 12:23:42;;;;;;;32.65;5.88;;;;;;;;;;4902898;29;20449;-79
2022/01/03 12:26:10;;;;;;;26.75;5.40;;;;;;;;;;4887987;29;20498;-78
2022/01/03 12:28:54;;;;;;;24.02;5.88;;;;;;;;;;4876135;29;20437;-78
2022/01/03 12:31:21;;;;;;;28.83;5.53;;;;;;;;;;4894930;29;20441;-78
2022/01/03 12:34:05;;;;;;;23.92;5.90;;;;;;;;;;4895021;29;20535;-78
2022/01/03 12:36:32;;;;;;;24.25;4.93;;;;;;;;;;4893393;29;21263;-78
2022/01/03 12:39:06;;;;;;;28.97;5.27;;;;;;;;;;4908057;29;20524;-79
2022/01/03 12:41:43;;;;;;;26.52;5.85;;;;;;;;;;4924985;29;21739;-79
2022/01/03 12:44:11;;;;;;;27.40;5.63;;;;;;;;;;4930945;29;20444;-80
2022/01/03 12:46:37;;;;;;;32.10;6.85;;;;;;;;;;4923867;29;20443;-78
2022/01/03 12:49:22;;;;;;;27.55;5.43;;;;;;;;;;4959239;28;20441;-79
2022/01/03 12:51:48;;;;;;;27.75;5.57;;;;;;;;;;4943067;29;20474;-80
2022/01/03 12:54:34;;;;;;;28.35;5.80;;;;;;;;;;4915259;29;20431;-80
2022/01/03 12:57:13;;;;;;;28.23;5.32;;;;;;;;;;4954543;28;20440;-80
2022/01/03 12:59:39;;;;;;;25.20;5.18;;;;;;;;;;4960563;28;20439;-79
2022/01/03 13:02:44;;;;;;;26.70;5.65;;;;;;;;;;4918327;29;20437;-79
2022/01/03 13:05:11;;;;;;;28.87;5.57;;;;;;;;;;4861545;29;20478;-79
2022/01/03 13:07:37;;;;;;;28.85;5.85;;;;;;;;;;4852413;29;20446;-79
2022/01/03 13:10:03;;;;;;;28.88;6.00;;;;;;;;;;4912813;29;20440;-79
2022/01/03 13:12:29;;;;;;;29.42;6.53;;;;;;;;;;4907829;29;20423;-79
2022/01/03 13:15:02;;;;;;;26.97;5.53;;;;;;;;;;4926666;29;20527;-79
2022/01/03 13:17:28;;;;;;;25.90;5.60;;;;;;;;;;4922196;29;20427;-78
2022/01/03 13:20:00;;;;;;;27.25;6.10;;;;;;;;;;4920981;29;20442;-80
2022/01/03 13:22:26;;;;;;;26.67;6.20;;;;;;;;;;4919015;29;20427;-78
2022/01/03 13:24:58;;;;;;;29.83;6.40;;;;;;;;;;4953398;28;20502;-79
2022/01/03 13:27:27;;;;;;;31.65;6.10;;;;;;;;;;4933579;29;20953;-79
2022/01/03 13:29:58;;;;;;;24.52;5.22;;;;;;;;;;4926979;29;20431;-78
2022/01/03 13:32:25;;;;;;;30.87;6.80;;;;;;;;;;4956292;28;20506;-79
2022/01/03 13:34:52;;;;;;;34.92;6.65;;;;;;;;;;4937385;29;20439;-79
2022/01/03 13:37:23;;;;;;;28.15;6.50;;;;;;;;;;4923140;29;20435;-79
2022/01/03 13:39:50;;;;;;;37.05;6.78;;;;;;;;;;4937570;29;20518;-79
2022/01/03 13:42:21;;;;;;;31.63;6.55;;;;;;;;;;4922540;29;20442;-79
2022/01/03 13:50:12;;;;;;;33.10;6.67;;;;;;;;;;4957234;28;20632;-78
2022/01/03 13:52:42;;;;;;;24.60;5.88;;;;;;;;;;4954081;28;20438;-78
2022/01/03 13:55:17;;;;;;;29.05;5.75;;;;;;;;;;4923124;29;20951;-78
2022/01/03 13:57:45;;;;;;;33.03;6.43;;;10.40;99.90;;;;;;4922448;29;20454;-77
2022/01/03 14:00:16;;;;;;;28.33;5.27;;;;;;;;;;4926105;29;20431;-78
2022/01/03 14:02:42;;;;;;;30.27;6.40;;;;;;;;;;4899147;29;20446;-77
2022/01/03 14:05:09;;;;;;;30.45;7.13;;;;;;;;;;4939985;29;20482;-77
2022/01/03 14:07:36;;;;;;;32.97;6.60;;;;;;;;;;4921247;29;20435;-78
2022/01/03 14:10:02;;;;;;;30.38;6.80;;;;;;;;;;4927094;29;20431;-77
2022/01/03 14:12:31;;;;;;;26.85;5.75;;;;;;;;;;4927662;29;20431;-78
2022/01/03 14:15:03;;;;;;;29.60;6.47;;;;;;;;;;4909127;29;20456;-77
2022/01/03 14:17:29;;;;;;;32.80;7.20;;;;;;;;;;4921859;29;20507;-78
2022/01/03 14:20:04;;;;;;;29.42;6.57;;;;;;;;;;4953575;28;20441;-77
2022/01/03 14:22:38;;;;;;;31.92;6.38;;;;;;;;;;4939718;29;20431;-77
2022/01/03 14:25:26;;;;;;;28.88;6.38;;;10.50;99.90;;;;;;4925176;29;20828;-79
2022/01/03 14:28:20;;;;;;;30.95;6.50;;;;;;;;;;4942625;29;20435;-79
2022/01/03 14:30:46;;;;;;;30.80;6.57;;;;;;;;;;4954865;28;20435;-78
2022/01/03 14:33:12;;;;;;;36.08;7.25;;;;;;;;;;4933330;29;20767;-79
2022/01/03 14:35:46;;;;;;;29.00;6.60;;;;;;;;;;4908014;29;20439;-79
2022/01/03 14:38:14;;;;;;;31.17;5.90;;;;;;;;;;4936129;29;20449;-79
2022/01/03 14:40:47;;;;;;;32.87;6.63;;;10.40;99.90;;;;;;4895011;29;20452;-79
2022/01/03 14:43:43;;;;;;;34.45;6.60;;;;;;;;;;4900839;29;20512;-79
2022/01/03 14:46:10;;;;;;;33.10;6.50;;;;;;;;;;4892228;29;20461;-78
2022/01/03 14:48:36;;;;;;;34.60;6.63;;;;;;;;;;4904885;29;20441;-80
2022/01/03 14:51:06;;;;;;;30.30;6.13;;;;;;;;;;4918126;29;20596;-79
2022/01/03 14:53:32;;;;;;;32.35;6.93;;;;;;;;;;4897893;29;20504;-80